createdAt,value
2019-02-03T00:04:53.047Z,96800.59
2019-02-03T00:07:21.514Z,96802.55
2019-02-03T00:09:50.193Z,96804.98
2019-02-03T00:12:18.615Z,96792.48
2019-02-03T00:14:47.036Z,96789.73
2019-02-03T00:17:15.688Z,96792.20
2019-02-03T00:19:44.106Z,96796.55
2019-02-03T00:22:12.523Z,96798.53
2019-02-03T00:24:41.157Z,96797.17
2019-02-03T00:27:09.842Z,96795.80
2019-02-03T00:29:38.258Z,96796.27
2019-02-03T00:32:06.777Z,96794.97
2019-02-03T00:34:35.194Z,96786.70
2019-02-03T00:37:14.892Z,96782.98
2019-02-03T00:39:33.876Z,96782.91
2019-02-03T00:42:04.057Z,96778.83
2019-02-03T00:44:32.458Z,96790.78
2019-02-03T00:47:00.880Z,96786.89
2019-02-03T00:49:29.539Z,96787.71
2019-02-03T00:51:57.940Z,96782.89
2019-02-03T00:54:26.590Z,96784.86
2019-02-03T00:56:55.289Z,96788.92
2019-02-03T00:59:23.704Z,96790.28
2019-02-03T01:01:52.104Z,96788.28
2019-02-03T01:04:20.668Z,96786.86
2019-02-03T01:06:49.136Z,96790.34
2019-02-03T01:09:38.589Z,96784.27
2019-02-03T01:12:07.005Z,96783.32
2019-02-03T01:14:35.473Z,96785.06
2019-02-03T01:17:04.197Z,96788.17
2019-02-03T01:19:32.592Z,96796.15
2019-02-03T01:22:00.996Z,96797.78
2019-02-03T01:24:29.407Z,96793.05
2019-02-03T01:26:57.808Z,96794.38
2019-02-03T01:29:26.232Z,96799.76
2019-02-03T01:31:54.633Z,96816.19
2019-02-03T01:34:23.034Z,96812.09
2019-02-03T01:36:51.692Z,96801.52
2019-02-03T01:39:20.360Z,96794.09
2019-02-03T01:41:49.046Z,96784.75
2019-02-03T01:44:17.460Z,96794.78
2019-02-03T01:46:45.931Z,96814.66
2019-02-03T01:49:16.071Z,96822.39
2019-02-03T01:51:44.811Z,96821.84
2019-02-03T01:54:53.139Z,96836.80
2019-02-03T01:57:21.543Z,96849.44
2019-02-03T01:59:49.939Z,96853.77
2019-02-03T02:02:18.355Z,96856.68
2019-02-03T02:04:46.755Z,96868.22
2019-02-03T02:07:15.180Z,96872.91
2019-02-03T02:09:43.575Z,96874.95
2019-02-03T02:12:11.974Z,96880.81
2019-02-03T02:14:40.388Z,96882.35
2019-02-03T02:17:08.786Z,96885.50
2019-02-03T02:19:37.263Z,96875.71
2019-02-03T02:22:06.214Z,96875.22
2019-02-03T02:24:34.719Z,96874.72
2019-02-03T02:27:03.383Z,96889.45
2019-02-03T02:29:32.071Z,96892.48
2019-02-03T02:32:00.845Z,96904.58
2019-02-03T02:34:29.649Z,96918.06
2019-02-03T02:36:58.059Z,96931.20
2019-02-03T02:39:26.457Z,96933.04
2019-02-03T02:41:54.859Z,96930.36
2019-02-03T02:44:42.608Z,96935.03
2019-02-03T02:47:11.303Z,96934.50
2019-02-03T02:49:39.719Z,96932.48
2019-02-03T02:52:08.569Z,96938.02
2019-02-03T02:54:37.258Z,96944.25
2019-02-03T02:57:05.672Z,96933.61
2019-02-03T02:59:34.065Z,96939.14
2019-02-03T03:02:02.484Z,96941.67
2019-02-03T03:04:31.185Z,96942.77
2019-02-03T03:06:59.578Z,96952.19
2019-02-03T03:09:28.247Z,96951.26
2019-02-03T03:11:56.651Z,96953.44
2019-02-03T03:14:25.069Z,96958.50
2019-02-03T03:16:53.471Z,96962.09
2019-02-03T03:19:22.174Z,96952.13
2019-02-03T03:21:50.857Z,96956.56
2019-02-03T03:24:19.546Z,96950.84
2019-02-03T03:26:48.035Z,96942.81
2019-02-03T03:29:16.669Z,96946.24
2019-02-03T03:31:45.397Z,96958.51
2019-02-03T03:34:13.806Z,96950.80
2019-02-03T03:36:42.456Z,96944.77
2019-02-03T03:39:51.025Z,96949.23
2019-02-03T03:42:39.014Z,96938.99
2019-02-03T03:45:47.325Z,96942.00
2019-02-03T03:48:15.718Z,96940.28
2019-02-03T03:50:44.137Z,96937.83
2019-02-03T03:53:31.870Z,96949.12
2019-02-03T03:56:02.007Z,96956.12
2019-02-03T03:58:30.401Z,96960.56
2019-02-03T04:04:05.995Z,96967.09
2019-02-03T04:06:34.400Z,96963.91
2019-02-03T04:11:42.396Z,96984.33
2019-02-03T04:14:10.835Z,96989.23
2019-02-03T04:16:58.573Z,97001.49
2019-02-03T04:19:26.972Z,97000.13
2019-02-03T04:21:55.393Z,97003.16
2019-02-03T04:24:23.781Z,97014.66
2019-02-03T04:26:54.171Z,97020.97
2019-02-03T04:29:22.577Z,97034.39
2019-02-03T04:31:51.042Z,97028.27
2019-02-03T04:34:19.716Z,97027.81
2019-02-03T04:36:48.117Z,97036.13
2019-02-03T04:39:16.516Z,97036.94
2019-02-03T04:41:44.989Z,97040.83
2019-02-03T04:44:13.387Z,97050.22
2019-02-03T04:46:41.799Z,97048.38
2019-02-03T04:49:10.203Z,97049.23
2019-02-03T04:51:38.589Z,97047.53
2019-02-03T04:54:07.077Z,97057.34
2019-02-03T04:56:35.761Z,97057.72
2019-02-03T04:59:04.214Z,97057.51
2019-02-03T05:01:32.613Z,97050.59
2019-02-03T05:04:01.017Z,97055.33
2019-02-03T05:06:29.425Z,97064.14
2019-02-03T05:09:10.362Z,97065.30
2019-02-03T05:11:27.974Z,97073.23
2019-02-03T05:13:56.355Z,97080.09
2019-02-03T05:16:25.024Z,97081.97
2019-02-03T05:18:53.418Z,97087.52
2019-02-03T05:21:21.891Z,97085.61
2019-02-03T05:23:52.304Z,97084.67
2019-02-03T05:26:21.031Z,97096.50
2019-02-03T05:28:49.421Z,97097.19
2019-02-03T05:31:18.164Z,97108.33
2019-02-03T05:33:46.575Z,97100.66
2019-02-03T05:36:14.994Z,97114.63
2019-02-03T05:38:45.446Z,97104.59
2019-02-03T05:41:14.136Z,97116.27
2019-02-03T05:43:42.822Z,97125.00
2019-02-03T05:46:11.227Z,97123.06
2019-02-03T05:48:39.893Z,97125.03
2019-02-03T05:51:08.570Z,97138.86
2019-02-03T05:53:38.690Z,97135.18
2019-02-03T05:56:07.375Z,97167.00
2019-02-03T05:58:35.771Z,97159.91
2019-02-03T06:03:59.220Z,97168.16
2019-02-03T06:06:27.921Z,97171.16
2019-02-03T06:08:56.378Z,97180.68
2019-02-03T06:11:25.090Z,97191.06
2019-02-03T06:13:53.482Z,97193.06
2019-02-03T06:16:23.600Z,97198.78
2019-02-03T06:18:59.237Z,97218.44
2019-02-03T06:21:27.925Z,97224.73
2019-02-03T06:23:56.613Z,97223.40
2019-02-03T06:26:25.013Z,97237.19
2019-02-03T06:28:53.422Z,97253.76
2019-02-03T06:31:21.810Z,97254.59
2019-02-03T06:34:30.126Z,97261.66
2019-02-03T06:36:58.806Z,97268.56
2019-02-03T06:39:27.209Z,97274.23
2019-02-03T06:41:55.604Z,97289.20
2019-02-03T06:44:24.014Z,97292.53
2019-02-03T06:49:41.582Z,97317.06
2019-02-03T06:52:10.118Z,97320.69
2019-02-03T06:54:38.826Z,97325.59
2019-02-03T06:57:07.264Z,97327.20
2019-02-03T06:59:35.653Z,97343.92
2019-02-03T07:02:45.745Z,97346.11
2019-02-03T07:05:14.140Z,97349.66
2019-02-03T07:07:42.558Z,97368.70
2019-02-03T07:10:51.100Z,97374.15
2019-02-03T07:13:19.781Z,97378.76
2019-02-03T07:15:49.896Z,97388.56
2019-02-03T07:18:18.285Z,97401.14
2019-02-03T07:20:46.695Z,97411.47
2019-02-03T07:23:15.090Z,97414.44
2019-02-03T07:25:43.502Z,97424.25
2019-02-03T07:28:11.977Z,97425.08
2019-02-03T07:30:40.789Z,97421.28
2019-02-03T07:33:09.192Z,97432.94
2019-02-03T07:35:37.598Z,97445.21
2019-02-03T07:38:06.334Z,97456.37
2019-02-03T07:40:34.742Z,97460.20
2019-02-03T07:43:03.397Z,97455.84
2019-02-03T07:45:31.793Z,97460.20
2019-02-03T07:48:00.193Z,97458.59
2019-02-03T07:50:28.602Z,97475.19
2019-02-03T07:52:57.011Z,97476.80
2019-02-03T07:55:25.406Z,97484.98
2019-02-03T07:57:54.081Z,97486.63
2019-02-03T08:00:22.651Z,97485.81
2019-02-03T08:02:51.353Z,97483.38
2019-02-03T08:05:19.819Z,97488.02
2019-02-03T08:07:48.222Z,97501.03
2019-02-03T08:10:56.783Z,97505.97
2019-02-03T08:13:25.523Z,97511.14
2019-02-03T08:15:53.920Z,97509.25
2019-02-03T08:18:22.331Z,97517.39
2019-02-03T08:20:50.721Z,97521.47
2019-02-03T08:23:19.109Z,97526.59
2019-02-03T08:25:47.520Z,97523.37
2019-02-03T08:28:15.916Z,97532.37
2019-02-03T08:30:44.330Z,97532.66
2019-02-03T08:33:12.727Z,97541.63
2019-02-03T08:35:41.438Z,97547.03
2019-02-03T08:38:10.126Z,97546.76
2019-02-03T08:40:38.828Z,97560.34
2019-02-03T08:43:07.233Z,97570.93
2019-02-03T08:45:35.836Z,97575.83
2019-02-03T08:48:23.822Z,97581.25
2019-02-03T08:50:52.498Z,97590.77
2019-02-03T08:53:20.902Z,97588.83
2019-02-03T08:56:08.941Z,97601.34
2019-02-03T08:58:39.341Z,97605.14
2019-02-03T09:01:08.029Z,97602.95
2019-02-03T09:03:55.779Z,97614.92
2019-02-03T09:06:24.180Z,97617.38
2019-02-03T09:09:13.642Z,97616.54
2019-02-03T09:11:42.032Z,97630.13
2019-02-03T09:14:10.426Z,97636.11
2019-02-03T09:16:38.897Z,97635.02
2019-02-03T09:19:07.293Z,97640.16
2019-02-03T09:21:35.941Z,97649.92
2019-02-03T09:27:12.418Z,97664.06
2019-02-03T09:29:40.865Z,97661.05
2019-02-03T09:32:11.255Z,97662.13
2019-02-03T09:34:39.694Z,97672.45
2019-02-03T09:37:08.228Z,97670.28
2019-02-03T09:39:36.635Z,97677.31
2019-02-03T09:42:06.813Z,97681.11
2019-02-03T09:44:35.561Z,97681.38
2019-02-03T09:50:52.186Z,97691.97
2019-02-03T09:53:20.583Z,97697.70
2019-02-03T09:55:50.957Z,97705.00
2019-02-03T09:58:19.355Z,97707.20
2019-02-03T10:00:48.171Z,97711.55
2019-02-03T10:03:56.483Z,97719.45
2019-02-03T10:06:25.130Z,97720.02
2019-02-03T10:08:53.527Z,97723.25
2019-02-03T10:11:23.001Z,97727.08
2019-02-03T10:13:52.049Z,97733.03
2019-02-03T10:16:20.466Z,97731.95
2019-02-03T10:18:48.917Z,97749.62
2019-02-03T10:21:17.331Z,97752.08
2019-02-03T10:23:45.715Z,97748.25
2019-02-03T10:26:14.105Z,97754.52
2019-02-03T10:28:42.516Z,97758.32
2019-02-03T10:31:10.910Z,97759.66
2019-02-03T10:33:39.303Z,97767.02
2019-02-03T10:36:07.711Z,97769.49
2019-02-03T10:38:36.107Z,97769.45
2019-02-03T10:41:04.583Z,97772.46
2019-02-03T10:43:33.207Z,97776.79
2019-02-03T10:46:03.852Z,97783.33
2019-02-03T10:48:32.249Z,97780.61
2019-02-03T10:51:00.644Z,97800.20
2019-02-03T10:53:29.040Z,97788.74
2019-02-03T10:55:57.442Z,97783.87
2019-02-03T10:58:25.834Z,97781.11
2019-02-03T11:00:55.241Z,97788.45
2019-02-03T11:03:24.495Z,97793.89
2019-02-03T11:06:32.788Z,97791.70
2019-02-03T11:09:20.307Z,97796.60
2019-02-03T11:11:48.694Z,97802.58
2019-02-03T11:14:17.097Z,97806.95
2019-02-03T11:16:45.486Z,97812.63
2019-02-03T11:19:13.883Z,97808.27
2019-02-03T11:21:43.996Z,97814.81
2019-02-03T11:24:12.708Z,97819.97
2019-02-03T11:26:41.106Z,97825.96
2019-02-03T11:29:09.496Z,97825.70
2019-02-03T11:31:38.140Z,97829.47
2019-02-03T11:34:06.784Z,97825.95
2019-02-03T11:36:35.176Z,97825.70
2019-02-03T11:39:45.261Z,97832.52
2019-02-03T11:42:13.668Z,97831.41
2019-02-03T11:44:42.169Z,97837.97
2019-02-03T11:47:10.539Z,97841.23
2019-02-03T11:49:39.183Z,97848.84
2019-02-03T11:52:07.639Z,97843.14
2019-02-03T11:54:36.347Z,97861.37
2019-02-03T11:57:44.909Z,97857.56
2019-02-03T12:00:53.205Z,97855.94
2019-02-03T12:03:21.974Z,97855.93
2019-02-03T12:05:50.357Z,97864.61
2019-02-03T12:08:18.823Z,97861.38
2019-02-03T12:10:47.288Z,97856.73
2019-02-03T12:16:11.885Z,97855.89
2019-02-03T12:18:40.611Z,97862.70
2019-02-03T12:21:09.296Z,97854.52
2019-02-03T12:23:37.687Z,97866.52
2019-02-03T12:26:06.847Z,97864.31
2019-02-03T12:28:36.592Z,97864.08
2019-02-03T12:31:04.959Z,97867.30
2019-02-03T12:33:33.652Z,97870.83
2019-02-03T12:36:03.829Z,97873.59
2019-02-03T12:38:32.464Z,97882.29
2019-02-03T12:41:00.851Z,97886.65
2019-02-03T12:43:29.522Z,97885.81
2019-02-03T12:45:57.903Z,97880.36
2019-02-03T12:48:26.453Z,97885.79
2019-02-03T12:50:56.704Z,97887.98
2019-02-03T12:53:25.387Z,97889.34
2019-02-03T12:55:53.791Z,97886.63
2019-02-03T12:58:22.455Z,97896.95
2019-02-03T13:00:50.860Z,97904.58
2019-02-03T13:03:19.736Z,97896.69
2019-02-03T13:05:50.151Z,97904.03
2019-02-03T13:08:18.835Z,97913.00
2019-02-03T13:10:47.230Z,97911.89
2019-02-03T13:13:34.969Z,97901.52
2019-02-03T13:16:25.788Z,97917.61
2019-02-03T13:18:54.436Z,97919.79
2019-02-03T13:21:22.899Z,97918.18
2019-02-03T13:23:51.309Z,97928.45
2019-02-03T13:26:22.738Z,97931.20
2019-02-03T13:28:51.840Z,97941.25
2019-02-03T13:31:20.250Z,97937.73
2019-02-03T13:33:48.637Z,97938.05
2019-02-03T13:36:36.389Z,97956.55
2019-02-03T13:39:44.670Z,97964.19
2019-02-03T13:42:13.744Z,97964.47
2019-02-03T13:44:42.381Z,97975.88
2019-02-03T13:47:10.773Z,97969.91
2019-02-03T13:49:39.497Z,97974.78
2019-02-03T13:52:08.029Z,97987.60
2019-02-03T13:54:36.435Z,97988.70
2019-02-03T13:57:06.929Z,98001.73
2019-02-03T13:59:35.339Z,98005.56
2019-02-03T14:02:04.076Z,98004.45
2019-02-03T14:04:32.737Z,98016.43
2019-02-03T14:07:01.146Z,98018.61
2019-02-03T14:09:29.544Z,98022.17
2019-02-03T14:11:58.029Z,98023.52
2019-02-03T14:14:26.418Z,98028.42
2019-02-03T14:16:54.829Z,98036.88
2019-02-03T14:19:23.360Z,98039.86
2019-02-03T14:21:51.693Z,98043.11
2019-02-03T14:24:21.822Z,98052.11
2019-02-03T14:26:50.206Z,98055.34
2019-02-03T14:29:18.620Z,98063.25
2019-02-03T14:31:47.011Z,98060.78
2019-02-03T14:34:15.401Z,98061.85
2019-02-03T14:36:44.119Z,98061.61
2019-02-03T14:39:12.757Z,98067.86
2019-02-03T14:41:41.166Z,98078.20
2019-02-03T14:44:09.977Z,98074.95
2019-02-03T14:46:38.381Z,98067.33
2019-02-03T14:49:06.813Z,98083.92
2019-02-03T14:51:35.224Z,98083.91
2019-02-03T14:54:05.486Z,98092.62
2019-02-03T14:56:33.882Z,98097.81
2019-02-03T14:59:02.600Z,98106.80
2019-02-03T15:01:31.056Z,98107.87
2019-02-03T15:03:59.470Z,98118.50
2019-02-03T15:06:27.866Z,98125.02
2019-02-03T15:08:56.527Z,98129.34
2019-02-03T15:11:24.934Z,98132.10
2019-02-03T15:13:53.467Z,98135.08
2019-02-03T15:16:21.877Z,98132.05
2019-02-03T15:18:50.554Z,98137.83
2019-02-03T15:21:19.212Z,98147.83
2019-02-03T15:23:47.925Z,98151.66
2019-02-03T15:26:16.339Z,98160.60
2019-02-03T15:28:44.734Z,98169.60
2019-02-03T15:31:13.199Z,98172.02
2019-02-03T15:33:41.602Z,98173.17
2019-02-03T15:36:11.778Z,98178.83
2019-02-03T15:38:40.185Z,98185.12
2019-02-03T15:41:08.831Z,98188.63
2019-02-03T15:43:37.244Z,98195.39
2019-02-03T15:46:07.936Z,98203.52
2019-02-03T15:48:36.219Z,98198.94
2019-02-03T15:51:04.694Z,98210.34
2019-02-03T15:53:33.087Z,98209.75
2019-02-03T15:56:01.494Z,98221.98
2019-02-03T15:58:29.895Z,98219.59
2019-02-03T16:00:58.622Z,98224.70
2019-02-03T16:03:27.308Z,98235.86
2019-02-03T16:05:55.796Z,98238.84
2019-02-03T16:08:24.477Z,98239.38
2019-02-03T16:10:52.944Z,98243.50
2019-02-03T16:13:21.643Z,98251.09
2019-02-03T16:16:29.957Z,98256.30
2019-02-03T16:18:58.366Z,98263.85
2019-02-03T16:21:26.835Z,98262.20
2019-02-03T16:23:55.603Z,98263.56
2019-02-03T16:26:25.933Z,98276.70
2019-02-03T16:28:54.339Z,98281.84
2019-02-03T16:31:22.729Z,98285.66
2019-02-03T16:33:51.129Z,98292.11
2019-02-03T16:36:19.538Z,98303.36
2019-02-03T16:38:47.931Z,98304.94
2019-02-03T16:41:16.347Z,98309.55
2019-02-03T16:43:48.975Z,98320.75
2019-02-03T16:46:15.418Z,98322.41
2019-02-03T16:48:43.854Z,98327.82
2019-02-03T16:51:12.216Z,98337.63
2019-02-03T16:53:42.347Z,98340.09
2019-02-03T16:56:12.463Z,98343.58
2019-02-03T16:58:40.886Z,98351.82
2019-02-03T17:01:09.344Z,98351.53
2019-02-03T17:03:38.117Z,98364.83
2019-02-03T17:06:06.751Z,98363.20
2019-02-03T17:08:35.145Z,98373.58
2019-02-03T17:11:05.647Z,98381.89
2019-02-03T17:13:34.247Z,98379.23
2019-02-03T17:16:03.038Z,98391.23
2019-02-03T17:18:31.435Z,98400.20
2019-02-03T17:21:02.416Z,98411.38
2019-02-03T17:23:30.317Z,98415.13
2019-02-03T17:26:40.364Z,98410.18
2019-02-03T17:29:08.755Z,98424.91
2019-02-03T17:31:37.226Z,98424.14
2019-02-03T17:34:05.716Z,98431.67
2019-02-03T17:36:34.401Z,98445.73
2019-02-03T17:41:38.356Z,98457.17
2019-02-03T17:44:46.664Z,98454.49
2019-02-03T17:47:15.324Z,98460.39
2019-02-03T17:49:44.040Z,98465.33
2019-02-03T17:52:14.141Z,98475.41
2019-02-03T17:54:42.533Z,98471.38
2019-02-03T17:57:11.200Z,98476.48
2019-02-03T17:59:39.612Z,98484.63
2019-02-03T18:02:08.079Z,98490.38
2019-02-03T18:04:36.739Z,98500.30
2019-02-03T18:07:05.733Z,98501.96
2019-02-03T18:09:34.405Z,98505.78
2019-02-03T18:12:03.117Z,98519.94
2019-02-03T18:14:31.512Z,98526.21
2019-02-03T18:17:00.177Z,98526.79
2019-02-03T18:19:28.580Z,98530.25
2019-02-03T18:21:58.691Z,98528.22
2019-02-03T18:24:27.362Z,98542.62
2019-02-03T18:26:55.756Z,98553.63
2019-02-03T18:29:24.149Z,98549.90
2019-02-03T18:31:52.552Z,98558.59
2019-02-03T18:34:21.188Z,98564.47
2019-02-03T18:36:50.171Z,98570.43
2019-02-03T18:42:07.820Z,98577.48
2019-02-03T18:44:36.438Z,98578.32
2019-02-03T18:47:06.728Z,98587.06
2019-02-03T18:49:35.212Z,98588.98
2019-02-03T18:52:03.601Z,98594.80
2019-02-03T18:54:31.993Z,98597.36
2019-02-03T18:57:00.462Z,98595.83
2019-02-03T18:59:28.862Z,98603.41
2019-02-03T19:01:59.253Z,98613.77
2019-02-03T19:04:27.641Z,98608.64
2019-02-03T19:06:56.334Z,98615.17
2019-02-03T19:09:24.745Z,98620.62
2019-02-03T19:11:53.138Z,98629.75
2019-02-03T19:14:21.530Z,98634.00
2019-02-03T19:16:51.889Z,98633.30
2019-02-03T19:19:20.282Z,98642.52
2019-02-03T19:21:48.691Z,98646.60
2019-02-03T19:24:17.428Z,98646.16
2019-02-03T19:26:46.118Z,98656.20
2019-02-03T19:29:14.501Z,98651.73
2019-02-03T19:31:42.981Z,98654.80
2019-02-03T19:34:11.428Z,98660.46
2019-02-03T19:36:39.916Z,98662.75
2019-02-03T19:39:48.478Z,98663.10
2019-02-03T19:42:17.265Z,98667.97
2019-02-03T19:44:45.699Z,98674.46
2019-02-03T19:47:14.062Z,98687.06
2019-02-03T19:49:46.561Z,98684.34
2019-02-03T19:52:13.056Z,98684.56
2019-02-03T19:54:42.116Z,98689.00
2019-02-03T19:57:30.553Z,98692.50
2019-02-03T19:59:59.347Z,98696.28
2019-02-03T20:02:27.758Z,98696.89
2019-02-03T20:04:56.508Z,98703.13
2019-02-03T20:07:24.965Z,98708.25
2019-02-03T20:09:53.361Z,98717.52
2019-02-03T20:12:24.155Z,98718.58
2019-02-03T20:14:51.981Z,98719.35
2019-02-03T20:17:20.506Z,98734.80
2019-02-03T20:19:49.283Z,98731.81
2019-02-03T20:22:18.154Z,98742.90
2019-02-03T20:24:46.560Z,98742.75
2019-02-03T20:27:15.176Z,98742.95
2019-02-03T20:29:43.891Z,98752.73
2019-02-03T20:32:12.306Z,98755.72
2019-02-03T20:34:40.700Z,98764.61
2019-02-03T20:37:09.553Z,98772.77
2019-02-03T20:39:38.597Z,98779.35
2019-02-03T20:42:07.333Z,98783.59
2019-02-03T20:44:56.565Z,98789.77
2019-02-03T20:47:24.981Z,98790.88
2019-02-03T20:49:53.380Z,98793.59
2019-02-03T20:55:23.118Z,98796.84
2019-02-03T20:57:51.585Z,98797.56
2019-02-03T21:00:59.930Z,98805.08
2019-02-03T21:03:28.434Z,98812.22
2019-02-03T21:05:56.808Z,98813.88
2019-02-03T21:08:25.519Z,98812.06
2019-02-03T21:10:53.922Z,98818.44
2019-02-03T21:13:22.314Z,98824.77
2019-02-03T21:15:52.425Z,98835.64
2019-02-03T21:18:21.178Z,98831.10
2019-02-03T21:20:49.565Z,98842.81
2019-02-03T21:25:53.705Z,98846.27
2019-02-03T21:28:22.111Z,98851.78
2019-02-03T21:30:50.503Z,98854.17
2019-02-03T21:33:18.914Z,98859.34
2019-02-03T21:35:47.377Z,98860.96
2019-02-03T21:38:16.092Z,98867.30
2019-02-03T21:40:44.494Z,98865.11
2019-02-03T21:43:12.886Z,98869.77
2019-02-03T21:45:44.760Z,98868.20
2019-02-03T21:48:11.405Z,98871.98
2019-02-03T21:50:39.804Z,98863.32
2019-02-03T21:53:08.512Z,98874.38
2019-02-03T21:55:56.258Z,98868.94
2019-02-03T21:58:24.651Z,98875.98
2019-02-03T22:00:53.306Z,98888.03
2019-02-03T22:03:21.945Z,98879.64
2019-02-03T22:05:50.393Z,98878.86
2019-02-03T22:08:19.064Z,98884.88
2019-02-03T22:10:47.700Z,98887.58
2019-02-03T22:13:16.099Z,98898.28
2019-02-03T22:15:55.065Z,98898.48
2019-02-03T22:18:14.635Z,98905.01
2019-02-03T22:20:43.028Z,98892.31
2019-02-03T22:23:11.442Z,98899.31
2019-02-03T22:25:40.069Z,98894.60
2019-02-03T22:28:08.457Z,98904.95
2019-02-03T22:31:16.776Z,98904.18
2019-02-03T22:33:45.448Z,98909.56
2019-02-03T22:36:14.132Z,98916.47
2019-02-03T22:38:42.525Z,98912.14
2019-02-03T22:41:10.916Z,98917.38
2019-02-03T22:43:39.326Z,98914.02
2019-02-03T22:46:09.800Z,98923.61
2019-02-03T22:48:38.201Z,98918.23
2019-02-03T22:51:06.729Z,98922.71
2019-02-03T22:53:35.448Z,98928.86
2019-02-03T22:56:23.181Z,98931.50
2019-02-03T22:58:51.585Z,98935.58
2019-02-03T23:02:00.117Z,98941.28
2019-02-03T23:04:28.518Z,98937.27
2019-02-03T23:06:56.910Z,98945.18
2019-02-03T23:12:44.426Z,98956.25
2019-02-03T23:15:12.974Z,98962.39
2019-02-03T23:17:41.654Z,98961.03
2019-02-03T23:20:49.961Z,98963.47
2019-02-03T23:23:18.355Z,98965.13
2019-02-03T23:25:46.762Z,98971.27
2019-02-03T23:28:15.155Z,98977.88
2019-02-03T23:30:43.722Z,98977.95
2019-02-03T23:33:12.143Z,98979.77
2019-02-03T23:35:40.515Z,98980.40
2019-02-03T23:38:08.982Z,98988.23
2019-02-03T23:40:37.380Z,98988.45
2019-02-03T23:43:25.127Z,98986.31
2019-02-03T23:45:53.522Z,98993.22
2019-02-03T23:48:41.561Z,98990.89
2019-02-03T23:51:10.256Z,98995.17
2019-02-03T23:53:38.646Z,99001.97
2019-02-03T23:56:07.049Z,99001.05
2019-02-03T23:58:35.689Z,98998.47
